Terminal Aerodrome Forecast
Issued by NWS

Home | Current Version | Previous Version | Text Only | Print | Product List | Glossary On
Versions: 1 2 3 4 5 6 7 8 9 10 11 12 13 14 15 16 17 18
000
FTUS43 KIND 031728
TAFBMG
TAF
KBMG 031728Z 0318/0418 26008KT P6SM SCT040
     FM040100 00000KT P6SM SCT250
     FM040500 00000KT 4SM BR SCT080
      TEMPO 0408/0412 1SM BR BCFG FEW004
     FM041300 22005KT P6SM SCT040=

USA.gov is the U.S. government's official web portal to all federal, state and local government web resources and services.